Time;durP1;ratioP1;P1;durP2;ratioP2;P2;SDS_P1;SDS_P2;PMS_P1;PMS_P2;Temp;Humidity;BMP_temperature;BMP_pressure;BME280_temperature;BME280_humidity;BME280_pressure;Samples;Min_cycle;Max_cycle;Signal;HPM_P1;HPM_P2
2021/12/21 00:00:47;;;;;;;9.35;5.35;;;;;;;0.28;67.33;100531.59;4984463;28;20683;-71
2021/12/21 00:03:15;;;;;;;14.98;6.65;;;;;;;0.20;67.99;100534.72;4990497;28;20125;-70
2021/12/21 00:05:41;;;;;;;10.80;6.45;;;;;;;0.03;67.13;100519.34;4993237;28;20113;-70
2021/12/21 00:08:12;;;;;;;10.38;5.88;;;;;;;0.19;66.73;100522.66;5022865;28;20042;-70
2021/12/21 00:10:42;;;;;;;8.23;4.53;;;;;;;0.12;66.32;100489.66;4988119;28;20129;-70
2021/12/21 00:13:20;;;;;;;9.82;5.82;;;;;;;0.04;66.56;100500.44;4992099;28;20065;-72
2021/12/21 00:21:51;;;;;;;9.23;5.70;;;;;;;0.10;66.34;100506.75;5006536;28;20052;-69
2021/12/21 00:24:21;;;;;;;7.57;5.13;;;;;;;-0.15;66.93;100512.53;5005772;28;20045;-70
2021/12/21 00:26:49;;;;;;;7.63;5.30;;;;;;;-0.03;66.42;100515.66;5004095;28;20061;-69
2021/12/21 00:29:15;;;;;;;7.88;5.13;;;;;;;0.04;66.25;100514.22;5000870;28;20085;-69
2021/12/21 00:31:40;;;;;;;9.10;5.78;;;;;;;0.02;66.95;100526.16;5001880;28;20505;-68
2021/12/21 00:34:07;;;;;;;11.45;4.85;;;;;;;0.17;67.15;100531.13;5000181;28;20025;-70
2021/12/21 00:36:35;;;;;;;10.07;5.40;;;;;;;0.01;68.33;100516.69;5002992;28;20042;-72
2021/12/21 00:39:07;;;;;;;6.75;4.68;;;;;;;-0.02;68.27;100539.78;5002310;28;20038;-69
2021/12/21 00:41:34;;;;;;;9.05;5.57;;;;;;;-0.07;67.05;100533.50;5002612;28;20437;-70
2021/12/21 00:45:18;;;;;;;8.63;5.63;;;;;;;0.03;66.59;100533.09;5030635;27;20617;-68
2021/12/21 00:47:47;;;;;;;9.70;6.40;;;;;;;0.23;67.51;100546.88;5020376;28;20045;-68
2021/12/21 00:50:17;;;;;;;19.20;6.03;;;;;;;-0.03;67.76;100530.25;5019524;28;20054;-68
2021/12/21 00:52:46;;;;;;;10.02;5.10;;;;;;;0.00;67.16;100556.19;5023259;28;20060;-68
2021/12/21 00:55:11;;;;;;;10.80;5.18;;;;;;;-0.22;67.18;100534.56;5024648;28;20033;-70
2021/12/21 00:57:37;;;;;;;6.65;5.30;;;;;;;-0.34;68.08;100517.69;5019655;28;20048;-70
2021/12/21 01:00:05;;;;;;;7.45;4.57;;;;;;;-0.46;68.02;100518.88;5039424;28;20094;-70
2021/12/21 01:02:31;;;;;;;9.63;4.95;;;;;;;-0.45;68.41;100524.91;5025734;28;20052;-71
2021/12/21 01:07:29;;;;;;;10.43;5.15;;;;;;;-0.46;67.70;100549.81;5035213;28;20618;-70
2021/12/21 01:28:11;;;;;;;7.20;4.70;;;;;;;-0.39;67.94;100548.41;4994916;28;20096;-70
2021/12/21 01:30:55;;;;;;;7.72;4.05;;;;;;;-0.41;67.72;100526.81;4998208;28;20042;-71
2021/12/21 01:35:50;;;;;;;7.22;4.45;;;;;;;-0.44;67.48;100526.69;4999819;28;19980;-68
2021/12/21 01:38:36;;;;;;;6.07;4.47;;;;;;;-0.62;68.06;100537.03;5011522;28;20050;-68
2021/12/21 01:41:19;;;;;;;8.63;5.63;;;;;;;-0.37;67.63;100538.19;4997731;28;20512;-67
2021/12/21 01:43:56;;;;;;;7.90;4.18;;;;;;;-0.44;68.04;100527.56;4995993;28;20469;-68
2021/12/21 01:51:53;;;;;;;10.27;5.00;;;;;;;-0.39;67.86;100548.41;4997865;28;20388;-69
2021/12/21 01:54:18;;;;;;;13.93;5.03;;;;;;;-0.33;67.59;100560.69;4997905;28;20050;-71
2021/12/21 01:56:44;;;;;;;11.05;4.95;;;;;;;-0.14;67.28;100549.50;4995280;28;20047;-69
2021/12/21 01:59:10;;;;;;;9.82;5.50;;;;;;;-0.58;67.27;100551.81;4997144;28;20486;-68
2021/12/21 02:01:35;;;;;;;8.90;3.92;;;;;;;-0.49;68.62;100547.09;4997121;28;20059;-68
2021/12/21 02:04:01;;;;;;;7.90;4.90;;;;;;;-0.11;66.25;100575.47;4998258;28;20504;-68
2021/12/21 02:06:28;;;;;;;9.05;4.88;;;;;;;-0.41;66.66;100554.31;4996552;28;20549;-68
2021/12/21 02:08:54;;;;;;;8.85;4.70;;;;;;;-0.20;67.90;100565.59;4997327;28;20465;-68
2021/12/21 02:11:20;;;;;;;7.05;5.90;;;;;;;-0.26;67.49;100545.59;4995829;28;20030;-71
2021/12/21 02:13:50;;;;;;;8.93;4.82;;;;;;;-0.04;66.96;100564.59;4996582;28;20049;-69
2021/12/21 02:16:24;;;;;;;10.73;5.32;;;;;;;-0.06;67.31;100543.88;4998099;28;20045;-68
2021/12/21 02:19:02;;;;;;;8.80;5.65;;;;;;;-0.05;67.26;100544.75;4983211;28;20057;-68
2021/12/21 02:21:36;;;;;;;8.07;4.43;;;;;;;-0.28;67.24;100543.72;4983500;28;20117;-69
2021/12/21 02:24:08;;;;;;;6.50;3.85;;;;;;;-0.18;67.31;100552.78;4986027;28;20540;-69
2021/12/21 02:29:14;;;;;;;14.95;5.70;;;;;;;0.08;66.82;100569.44;4980046;28;20617;-69
2021/12/21 02:31:46;;;;;;;8.50;5.03;;;;;;;-0.20;67.19;100547.56;4983606;28;20111;-69
2021/12/21 02:34:12;;;;;;;7.93;5.32;;;;;;;-0.16;67.56;100551.16;4982010;28;20026;-68
2021/12/21 02:36:44;;;;;;;8.30;5.32;;;;;;;-0.14;66.77;100560.72;4983782;28;20536;-69
2021/12/21 02:39:10;;;;;;;8.30;5.68;;;;;;;-0.28;66.92;100561.78;4983582;28;20089;-68
2021/12/21 02:41:37;;;;;;;7.97;4.72;;;;;;;-0.30;67.31;100573.75;4984436;28;20406;-69
2021/12/21 02:44:03;;;;;;;7.47;5.28;;;;;;;-0.26;66.78;100571.38;4984084;28;20042;-69
2021/12/21 02:46:28;;;;;;;10.38;5.28;;;;;;;-0.20;67.64;100591.38;4985028;28;20053;-70
2021/12/21 02:51:22;;;;;;;7.80;5.38;;;;;;;-0.23;67.64;100584.41;5004009;28;20610;-67
2021/12/21 02:53:47;;;;;;;7.03;4.38;;;;;;;-0.25;67.75;100582.56;5000588;28;20045;-70
2021/12/21 02:56:15;;;;;;;9.23;4.82;;;;;;;-0.13;67.05;100575.38;5032681;28;20053;-70
2021/12/21 02:58:41;;;;;;;6.05;3.97;;;;;;;-0.22;67.29;100578.41;5000030;28;20498;-72
2021/12/21 03:01:09;;;;;;;9.90;5.93;;;;;;;-0.17;67.29;100603.53;4999004;28;20828;-71
2021/12/21 03:03:37;;;;;;;9.02;5.32;;;;;;;-0.14;66.70;100601.09;4999704;28;20041;-69
2021/12/21 03:06:11;;;;;;;11.48;4.97;;;;;;;-0.12;67.58;100602.91;4999223;28;20061;-70
2021/12/21 03:08:48;;;;;;;7.75;4.45;;;;;;;-0.29;67.55;100616.75;5001178;28;20046;-70
2021/12/21 03:11:34;;;;;;;10.77;4.90;;;;;;;-0.08;68.38;100622.00;4998196;28;20456;-69
2021/12/21 03:14:08;;;;;;;8.98;5.47;;;;;;;-0.29;69.20;100612.47;5000105;28;20462;-69
2021/12/21 03:16:37;;;;;;;;;;;;;;;-0.01;67.96;100634.38;5016227;28;20037;-67
2021/12/21 03:19:05;;;;;;;6.95;4.70;;;;;;;-0.02;67.03;100636.09;4999925;28;19926;-69
2021/12/21 03:21:32;;;;;;;10.80;4.65;;;;;;;-0.26;67.73;100606.56;5002506;28;20065;-69
2021/12/21 03:24:01;;;;;;;6.35;4.60;;;;;;;-0.16;67.89;100631.97;4998178;28;20056;-70
2021/12/21 03:26:27;;;;;;;7.03;4.45;;;;;;;-0.26;68.37;100628.09;5016856;28;20042;-69
2021/12/21 03:29:00;;;;;;;8.05;3.67;;;;;;;-0.32;67.91;100611.44;4996344;28;20057;-70
2021/12/21 03:31:25;;;;;;;8.43;4.82;;;;;;;-0.55;68.75;100600.94;4998761;28;20057;-69
2021/12/21 03:33:51;;;;;;;6.18;4.13;;;;;;;-0.53;69.16;100603.59;4999396;28;20592;-69
2021/12/21 03:36:18;;;;;;;6.00;3.80;;;;;;;-0.33;68.40;100638.94;5001902;28;20046;-68
2021/12/21 03:38:52;;;;;;;11.27;4.82;;;;;;;-0.74;69.12;100603.44;5002449;28;20050;-70
2021/12/21 03:41:18;;;;;;;6.97;4.40;;;;;;;-0.66;69.07;100603.00;5000041;28;20046;-70
2021/12/21 03:43:47;;;;;;;5.38;3.65;;;;;;;-0.55;68.82;100625.81;5003546;28;20128;-69
2021/12/21 03:46:15;;;;;;;10.25;5.20;;;;;;;-0.64;69.35;100636.56;4999628;28;20034;-70
2021/12/21 03:48:43;;;;;;;9.02;5.65;;;;;;;-0.71;69.18;100609.59;5000218;28;20041;-69
2021/12/21 03:51:12;;;;;;;7.47;4.47;;;;;;;-0.61;68.75;100617.78;4997455;28;20125;-69
2021/12/21 03:53:38;;;;;;;14.00;4.95;;;;;;;-0.61;68.61;100628.09;5002637;28;20054;-72
2021/12/21 03:58:32;;;;;;;11.35;5.05;;;;;;;-0.57;68.37;100636.03;4997524;28;20065;-71
2021/12/21 04:00:58;;;;;;;7.05;4.35;;;;;;;-0.64;68.93;100670.94;4998841;28;20470;-69
2021/12/21 04:03:24;;;;;;;7.50;4.75;;;;;;;-0.49;68.92;100657.06;4985185;28;20057;-68
2021/12/21 04:05:49;;;;;;;10.38;5.90;;;;;;;-0.43;68.46;100647.03;4988454;28;20064;-69
2021/12/21 04:08:14;;;;;;;8.60;5.38;;;;;;;-0.52;69.15;100625.97;4983248;28;20049;-68
2021/12/21 04:10:40;;;;;;;10.43;5.45;;;;;;;-0.79;69.42;100652.16;4985561;28;20053;-69
2021/12/21 04:13:09;;;;;;;6.30;4.60;;;;;;;-0.77;69.30;100654.78;4984311;28;20489;-68
2021/12/21 04:15:42;;;;;;;6.60;3.75;;;;;;;-0.68;69.56;100656.16;4984730;28;20038;-68
2021/12/21 04:18:10;;;;;;;7.00;5.10;;;;;;;-1.07;70.48;100648.22;4985362;28;20112;-71
2021/12/21 04:20:35;;;;;;;8.32;4.57;;;;;;;-0.77;69.82;100660.84;4986744;28;20096;-69
2021/12/21 04:23:01;;;;;;;11.25;5.57;;;;;;;-0.68;69.63;100674.19;4986185;28;20133;-69
2021/12/21 04:25:26;;;;;;;17.80;5.35;;;;;;;-0.74;69.67;100654.97;4986089;28;20042;-69
2021/12/21 04:27:52;;;;;;;11.35;5.50;;;;;;;-0.77;69.40;100658.28;4980359;28;20556;-68
2021/12/21 04:30:17;;;;;;;8.50;5.47;;;;;;;-0.71;69.23;100668.00;4985651;28;20809;-69
2021/12/21 04:32:43;;;;;;;8.27;4.80;;;;;;;-0.80;69.13;100690.72;4987025;28;20121;-69
2021/12/21 04:35:09;;;;;;;9.95;5.95;;;;;;;-0.68;68.56;100674.19;4986599;28;20109;-71
2021/12/21 04:37:42;;;;;;;10.45;6.30;;;;;;;-0.68;68.69;100670.72;4986808;28;20056;-70
2021/12/21 04:40:13;;;;;;;14.70;5.53;;;;;;;-0.73;70.12;100682.47;4983414;28;20042;-68
2021/12/21 04:42:38;;;;;;;8.77;5.63;;;;;;;-0.67;69.59;100693.09;4984190;28;20471;-69
2021/12/21 04:45:04;;;;;;;24.13;5.78;;;;;;;-0.65;70.37;100682.06;4985692;28;20469;-69
2021/12/21 04:47:30;;;;;;;19.40;6.15;;;;;;;-0.84;70.06;100679.41;4987024;28;20070;-70
2021/12/21 04:49:55;;;;;;;10.07;5.47;;;;;;;-1.11;70.07;100686.59;4986585;28;20054;-70
2021/12/21 04:53:24;;;;;;;8.73;5.25;;;;;;;-0.67;69.15;100690.53;5039623;28;20612;-71
2021/12/21 04:55:52;;;;;;;7.20;5.25;;;;;;;-0.70;69.08;100701.56;5011178;28;20057;-68
2021/12/21 04:58:18;;;;;;;11.40;4.43;;;;;;;-0.70;69.02;100704.16;5009560;28;20030;-68
2021/12/21 05:00:44;;;;;;;10.00;5.95;;;;;;;-1.06;70.16;100696.31;5013732;28;20037;-72
2021/12/21 05:03:10;;;;;;;10.45;6.30;;;;;;;-0.71;69.32;100706.63;5031533;28;20050;-70
2021/12/21 05:05:35;;;;;;;11.45;6.00;;;;;;;-0.62;68.93;100711.38;5008081;28;20047;-69
2021/12/21 05:10:58;;;;;;;13.25;6.53;;;;;;;-0.88;69.29;100716.97;5009953;28;20390;-69
2021/12/21 05:13:27;;;;;;;11.27;6.20;;;;;;;-0.88;69.30;100719.56;5008437;28;20092;-69
2021/12/21 05:15:53;;;;;;;14.85;7.47;;;;;;;-0.89;69.99;100722.03;5009194;28;20104;-69
2021/12/21 05:18:19;;;;;;;9.45;7.13;;;;;;;-0.93;70.10;100725.28;5005810;28;20042;-70
2021/12/21 05:20:45;;;;;;;14.32;6.63;;;;;;;-0.82;69.96;100716.44;5010909;28;20108;-72
2021/12/21 05:23:11;;;;;;;7.53;5.50;;;;;;;-0.78;69.61;100743.22;5007175;28;20050;-69
2021/12/21 05:25:37;;;;;;;15.32;7.68;;;;;;;-0.90;69.61;100730.59;5011506;28;20054;-71
2021/12/21 05:28:05;;;;;;;8.73;5.53;;;;;;;-0.68;69.38;100748.00;5007910;28;20088;-68
2021/12/21 05:30:32;;;;;;;12.27;7.38;;;;;;;-0.73;69.48;100768.38;5008072;28;20061;-68
2021/12/21 05:32:57;;;;;;;17.08;9.32;;;;;;;-0.61;69.00;100742.34;5008013;28;20601;-68
2021/12/21 05:35:25;;;;;;;10.10;8.02;;;;;;;-0.72;68.67;100754.72;5009847;28;20472;-71
2021/12/21 05:37:55;;;;;;;14.75;7.75;;;;;;;-0.93;69.77;100776.81;5008581;28;20628;-68
2021/12/21 05:40:21;;;;;;;10.57;6.05;;;;;;;-0.74;69.66;100758.91;5007402;28;20147;-68
2021/12/21 05:42:48;;;;;;;11.43;7.35;;;;;;;-0.65;69.56;100758.50;5006820;28;20034;-70
2021/12/21 05:45:17;;;;;;;12.77;6.88;;;;;;;-0.84;69.21;100764.41;5006156;28;20042;-70
2021/12/21 05:47:44;;;;;;;13.38;7.43;;;;;;;-0.69;69.40;100770.31;5011176;28;20046;-69
2021/12/21 05:50:16;;;;;;;13.40;8.13;;;;;;;-0.70;69.36;100794.31;5026549;28;20416;-68
2021/12/21 05:52:42;;;;;;;14.05;8.48;;;;;;;-0.67;69.24;100793.59;5007142;28;20048;-70
2021/12/21 05:55:08;;;;;;;12.32;7.45;;;;;;;-0.69;69.09;100819.28;5009939;28;20120;-70
2021/12/21 05:57:35;;;;;;;10.73;6.93;;;;;;;-0.57;69.73;100789.78;5044682;28;20100;-69
2021/12/21 06:00:01;;;;;;;10.15;8.30;;;;;;;-0.73;69.70;100817.34;5009714;28;20046;-68
2021/12/21 06:02:26;;;;;;;16.15;7.78;;;;;;;-0.64;69.13;100802.34;5008689;28;20061;-68
2021/12/21 06:04:52;;;;;;;8.85;6.93;;;;;;;-0.47;69.17;100817.78;4990583;28;20561;-71
2021/12/21 06:07:17;;;;;;;14.05;7.28;;;;;;;-0.58;69.68;100809.53;4990109;28;20109;-71
2021/12/21 06:09:46;;;;;;;18.98;9.23;;;;;;;-0.57;69.73;100831.91;4998639;28;20021;-70
2021/12/21 06:15:24;;;;;;;13.63;8.60;;;;;;;-0.94;70.54;100827.41;4985464;28;20061;-69
2021/12/21 06:25:57;;;;;;;14.20;7.90;;;;;;;-0.77;69.15;100835.13;4992468;28;20544;-70
2021/12/21 06:28:23;;;;;;;12.10;8.65;;;;;;;-0.69;70.12;100855.34;4988998;28;20366;-68
2021/12/21 06:30:49;;;;;;;23.75;9.65;;;;;;;-0.44;69.94;100872.09;4995072;28;20481;-68
2021/12/21 06:33:15;;;;;;;17.38;10.38;;;;;;;-0.46;69.57;100865.97;4996602;28;20034;-68
2021/12/21 06:35:41;;;;;;;16.38;9.07;;;;;;;-0.55;69.12;100862.91;4995773;28;20117;-68
2021/12/21 06:38:07;;;;;;;15.13;9.80;;;;;;;-0.77;69.57;100858.31;4996783;28;20123;-70
2021/12/21 06:40:33;;;;;;;15.77;9.57;;;;;;;-1.93;72.89;100911.16;4994809;28;20499;-69
2021/12/21 06:43:03;;;;;;;15.02;10.98;;;;;;;-1.26;72.41;100920.97;4995477;28;20505;-68
2021/12/21 06:45:49;;;;;;;15.38;11.15;;;;;;;-1.54;73.11;100908.22;4996687;28;20062;-68
2021/12/21 06:53:36;;;;;;;19.40;11.35;;;;;;;-0.67;71.38;100967.13;4997260;28;20045;-68
2021/12/21 06:56:03;;;;;;;19.17;11.77;;;;;;;-0.74;70.60;100952.13;4991801;28;20127;-71
2021/12/21 06:58:28;;;;;;;13.32;9.32;;;;;;;-1.14;70.42;100985.13;4995996;28;20057;-69
2021/12/21 07:03:26;;;;;;;18.50;10.75;;;;;;;-1.21;70.19;100958.13;5002130;27;20989;-69
2021/12/21 07:05:52;;;;;;;15.40;10.40;;;;;;;-1.25;70.64;100971.63;5004683;28;20042;-69
2021/12/21 07:08:23;;;;;;;13.00;9.15;;;;;;;-0.57;69.94;100990.81;5000710;28;20054;-69
2021/12/21 07:11:00;;;;;;;15.15;9.60;;;;;;;-0.94;69.75;100978.47;4999746;28;20057;-72
2021/12/21 07:18:54;;;;;;;19.48;13.40;;;;;;;-0.28;68.86;101013.88;5001439;28;20044;-70
2021/12/21 07:21:20;;;;;;;15.20;11.02;;;;;;;-0.16;68.06;100993.03;4997478;28;20042;-68
2021/12/21 07:23:45;;;;;;;20.65;10.68;;;;;;;-0.37;68.89;100995.34;4999513;28;20046;-70
2021/12/21 07:26:11;;;;;;;14.93;11.07;;;;;;;-0.59;69.52;101005.31;5002463;28;20050;-68
2021/12/21 07:28:36;;;;;;;18.98;10.48;;;;;;;-0.59;70.29;101006.19;4995807;28;20049;-68
2021/12/21 07:31:02;;;;;;;12.45;8.05;;;;;;;-0.30;71.10;101004.31;5001318;28;20033;-67
2021/12/21 07:33:28;;;;;;;11.95;7.97;;;;;;;-0.46;71.47;101007.75;5002094;28;20041;-69
2021/12/21 07:35:53;;;;;;;14.57;8.85;;;;;;;-0.44;72.64;101037.94;5000134;28;20038;-71
2021/12/21 07:38:19;;;;;;;11.55;7.63;;;;;;;-0.76;74.13;101018.16;4999587;28;20058;-71
2021/12/21 07:40:45;;;;;;;13.68;7.50;;;;;;;-1.43;75.63;101012.63;5003305;28;20042;-69
2021/12/21 07:43:11;;;;;;;8.32;5.90;;;;;;;-0.49;73.38;101008.47;5001618;28;20037;-69
2021/12/21 07:45:37;;;;;;;9.25;5.45;;;;;;;-0.79;74.11;101024.84;5005208;28;20022;-68
2021/12/21 07:48:02;;;;;;;7.15;4.68;;;;;;;-1.55;75.88;101058.25;4996966;28;20164;-68
2021/12/21 07:50:28;;;;;;;6.90;4.55;;;;;;;-1.61;75.91;101045.94;4999060;28;20378;-68
2021/12/21 07:55:27;;;;;;;19.77;5.70;;;;;;;-0.94;73.76;101035.16;5128466;27;20562;-67
2021/12/21 07:57:52;;;;;;;8.70;6.00;;;;;;;-1.01;73.47;101043.34;5066668;28;20040;-71
2021/12/21 08:00:19;;;;;;;13.90;6.35;;;;;;;-1.49;74.53;101038.91;5062304;28;20055;-71
2021/12/21 08:02:45;;;;;;;10.75;5.40;;;;;;;-1.26;74.23;101052.25;5065773;28;20048;-69
2021/12/21 08:05:11;;;;;;;9.82;5.35;;;;;;;-1.02;73.91;101068.22;5081270;28;20032;-70
2021/12/21 08:07:52;;;;;;;10.68;5.95;;;;;;;-1.33;73.51;101070.72;5081812;28;20041;-69
2021/12/21 08:10:40;;;;;;;7.80;5.10;;;;;;;-0.85;72.94;101064.88;5071848;28;20443;-69
2021/12/21 08:13:04;;;;;;;8.13;4.93;;;;;;;-0.99;72.79;101081.25;5064211;28;20039;-70
2021/12/21 08:15:29;;;;;;;6.57;4.55;;;;;;;-0.93;72.31;101083.31;5059133;28;20053;-69
2021/12/21 08:17:55;;;;;;;5.68;3.78;;;;;;;-1.29;71.72;101070.97;5062993;28;20573;-70
2021/12/21 08:20:20;;;;;;;9.18;4.63;;;;;;;-0.85;70.73;101085.50;5063242;28;20060;-69
2021/12/21 08:22:46;;;;;;;9.50;4.70;;;;;;;-0.78;69.81;101101.31;5061440;28;20079;-70
2021/12/21 08:25:12;;;;;;;8.68;4.28;;;;;;;-1.38;70.06;101091.03;5064016;28;20074;-69
2021/12/21 08:27:37;;;;;;;7.47;5.00;;;;;;;-0.79;70.21;101095.28;5062367;28;20044;-71
2021/12/21 08:30:04;;;;;;;15.05;5.15;;;;;;;-1.32;69.50;101122.25;5064996;28;20087;-69
2021/12/21 08:32:30;;;;;;;12.40;5.22;;;;;;;-0.89;69.40;101093.88;5072342;28;20060;-71
2021/12/21 08:34:55;;;;;;;15.60;5.75;;;;;;;-0.94;69.05;101113.31;5050495;28;20076;-69
2021/12/21 08:37:21;;;;;;;6.55;4.05;;;;;;;-0.76;67.09;101121.22;5064647;28;20043;-69
2021/12/21 08:39:46;;;;;;;13.60;4.82;;;;;;;-1.12;67.85;101126.03;5065509;28;20044;-69
2021/12/21 08:42:14;;;;;;;6.47;4.63;;;;;;;-0.82;67.85;101127.69;5064982;28;20421;-70
2021/12/21 08:44:41;;;;;;;8.23;4.55;;;;;;;-0.89;66.76;101117.06;5064299;28;20051;-69
2021/12/21 08:47:07;;;;;;;12.15;5.82;;;;;;;-1.02;68.01;101099.13;5074963;28;20141;-68
2021/12/21 08:49:33;;;;;;;8.43;5.03;;;;;;;-2.43;71.87;101111.19;5086258;27;20619;-68
2021/12/21 08:51:59;;;;;;;8.27;4.55;;;;;;;-1.38;70.51;101137.38;5086258;28;20040;-67
2021/12/21 08:54:24;;;;;;;12.88;5.60;;;;;;;-1.18;69.61;101101.59;5064478;28;20059;-67
2021/12/21 08:56:51;;;;;;;12.27;6.72;;;;;;;-0.78;68.44;101137.38;5059983;28;20819;-68
2021/12/21 08:59:18;;;;;;;10.30;5.38;;;;;;;-1.23;67.52;101119.34;5062701;28;20048;-68
2021/12/21 09:01:44;;;;;;;7.50;3.53;;;;;;;-2.11;67.64;101123.47;5057974;28;20333;-68
2021/12/21 09:04:10;;;;;;;7.18;3.60;;;;;;;-2.35;68.18;101095.44;5059330;28;20032;-69
2021/12/21 09:06:36;;;;;;;11.43;5.18;;;;;;;-1.77;68.37;101112.69;5054561;28;20496;-71
2021/12/21 09:09:03;;;;;;;6.00;3.97;;;;;;;-1.62;67.38;101118.75;5072685;28;20104;-69
2021/12/21 09:11:29;;;;;;;10.75;3.47;;;;;;;-1.32;66.53;101158.31;5072840;28;20051;-68
2021/12/21 09:13:54;;;;;;;11.15;4.72;;;;;;;-1.55;66.34;101136.34;5062801;28;20053;-68
2021/12/21 09:16:20;;;;;;;8.05;3.80;;;;;;;-1.58;64.71;101118.16;5053894;28;20505;-68
2021/12/21 09:18:45;;;;;;;7.18;4.88;;;;;;;-1.37;65.12;101146.84;5073996;28;20059;-69
2021/12/21 09:21:11;;;;;;;6.78;4.38;;;;;;;-1.39;64.56;101151.00;5068051;28;20038;-71
2021/12/21 09:23:37;;;;;;;5.13;3.20;;;;;;;-1.87;65.18;101142.13;5059607;28;20427;-69
2021/12/21 09:26:03;;;;;;;6.63;3.83;;;;;;;-1.35;65.53;101165.84;5050080;28;20116;-68
2021/12/21 09:28:28;;;;;;;6.68;3.03;;;;;;;-2.15;65.51;101168.66;5046024;28;20388;-68
2021/12/21 09:30:54;;;;;;;6.72;4.10;;;;;;;-2.14;67.13;101136.13;5049800;28;20029;-70
2021/12/21 09:33:19;;;;;;;11.93;3.83;;;;;;;-2.11;64.77;101149.16;5046726;28;20407;-68
2021/12/21 09:35:45;;;;;;;6.63;4.07;;;;;;;-1.76;64.96;101135.03;5049926;28;20052;-68
2021/12/21 09:38:11;;;;;;;19.73;6.38;;;;;;;-1.43;63.51;101137.88;5050933;28;20135;-68
2021/12/21 09:40:39;;;;;;;11.30;5.07;;;;;;;-1.08;64.92;101147.69;5049843;28;20091;-68
2021/12/21 09:43:07;;;;;;;14.35;4.25;;;;;;;-1.18;63.45;101169.44;5053174;28;20032;-68
2021/12/21 09:45:33;;;;;;;8.77;4.40;;;;;;;-0.89;62.66;101149.63;5050820;28;20037;-72
2021/12/21 09:47:58;;;;;;;9.88;4.68;;;;;;;-0.98;63.15;101178.34;5055002;28;20411;-68
2021/12/21 09:50:25;;;;;;;7.45;4.35;;;;;;;-1.27;63.67;101168.88;5050391;28;20118;-70
2021/12/21 09:52:52;;;;;;;11.05;4.85;;;;;;;-1.19;64.40;101174.50;5054282;28;20052;-70
2021/12/21 09:55:20;;;;;;;5.47;3.33;;;;;;;-1.08;62.72;101150.25;5052678;28;20056;-70
2021/12/21 09:57:48;;;;;;;5.40;2.85;;;;;;;-1.71;61.90;101165.41;5051706;28;20032;-70
2021/12/21 10:00:19;;;;;;;6.90;3.72;;;;;;;-1.49;63.84;101162.44;5048099;28;20496;-69
2021/12/21 10:02:45;;;;;;;6.22;3.97;;;;;;;-1.33;63.15;101158.22;5045345;28;20566;-69
2021/12/21 10:05:14;;;;;;;10.30;5.05;;;;;;;-0.88;62.13;101184.91;5052448;28;20041;-69
2021/12/21 10:07:40;;;;;;;11.60;5.20;;;;;;;-0.94;62.34;101169.09;5049277;28;20044;-70
2021/12/21 10:10:07;;;;;;;9.48;4.65;;;;;;;-0.52;62.11;101168.09;5048277;28;22666;-69
2021/12/21 10:12:41;;;;;;;11.02;5.05;;;;;;;-1.10;63.46;101175.94;5049447;28;20086;-69
2021/12/21 10:15:16;;;;;;;7.55;4.20;;;;;;;-0.77;60.64;101164.91;5050314;28;20045;-70
2021/12/21 10:17:58;;;;;;;5.88;3.47;;;;;;;-0.72;60.23;101164.38;5048218;28;20044;-69
2021/12/21 10:20:34;;;;;;;6.05;4.13;;;;;;;-0.49;59.67;101157.09;5050862;28;20040;-69
2021/12/21 10:23:08;;;;;;;7.30;2.67;;;;;;;-0.70;60.15;101167.06;5048079;28;20522;-70
2021/12/21 10:25:57;;;;;;;6.57;3.97;;;;;;;-0.55;60.15;101164.47;5052249;28;20041;-69
2021/12/21 10:28:38;;;;;;;14.80;4.15;;;;;;;-1.36;60.18;101182.09;5045066;28;20048;-70
2021/12/21 10:31:09;;;;;;;3.35;2.50;;;;;;;-0.88;60.61;101161.72;5046780;28;20040;-70
2021/12/21 10:33:37;;;;;;;9.20;3.72;;;;;;;-0.18;59.26;101171.69;5049308;28;20787;-69
2021/12/21 10:36:06;;;;;;;7.82;4.35;;;;;;;-0.29;57.67;101177.13;5048500;28;20061;-70
2021/12/21 10:38:40;;;;;;;7.05;3.17;;;;;;;-0.49;58.47;101183.75;5049298;28;20564;-69
2021/12/21 10:41:09;;;;;;;;;;;;;;;0.86;58.47;101195.31;5053294;28;20048;-69
2021/12/21 10:43:35;;;;;;;8.13;3.78;;;;;;;1.02;55.78;101181.50;5051025;28;19923;-69
2021/12/21 10:46:02;;;;;;;7.50;3.50;;;;;;;1.12;54.45;101168.22;5052089;28;20020;-69
2021/12/21 10:48:29;;;;;;;8.68;5.63;;;;;;;-0.10;54.74;101193.63;5067369;28;20048;-69
2021/12/21 10:53:33;;;;;;;6.22;3.15;;;;;;;1.56;54.70;101182.47;5022696;27;20605;-70
2021/12/21 10:56:09;;;;;;;5.97;3.78;;;;;;;0.50;53.40;101200.34;5007387;28;20067;-68
2021/12/21 10:58:39;;;;;;;6.18;4.43;;;;;;;-0.14;56.56;101204.56;5003546;28;20444;-68
2021/12/21 11:03:35;;;;;;;8.35;3.55;;;;;;;1.28;55.29;101172.47;5012908;27;1341327;-68
2021/12/21 11:06:13;;;;;;;6.90;4.15;;;;;;;0.63;54.49;101161.47;5038128;28;20041;-68
2021/12/21 11:08:43;;;;;;;6.82;4.40;;;;;;;-0.05;56.18;101187.03;5037840;28;20120;-70
2021/12/21 11:11:22;;;;;;;6.10;3.58;;;;;;;-0.06;55.26;101191.31;5038125;28;20053;-68
2021/12/21 11:13:59;;;;;;;11.80;4.63;;;;;;;0.98;53.78;101167.56;5037031;28;20049;-71
2021/12/21 11:16:35;;;;;;;11.13;5.07;;;;;;;-0.14;55.88;101160.72;5037965;28;20119;-69
2021/12/21 11:19:01;;;;;;;8.55;5.28;;;;;;;-0.31;56.02;101152.94;5026165;28;20037;-70
2021/12/21 11:21:28;;;;;;;17.13;5.32;;;;;;;0.38;55.21;101156.69;5038488;28;20543;-70
2021/12/21 11:23:54;;;;;;;7.63;4.25;;;;;;;0.25;54.10;101151.69;5041182;28;20057;-70
2021/12/21 11:26:21;;;;;;;11.82;5.57;;;;;;;-0.23;55.65;101162.00;5041452;28;20049;-67
2021/12/21 11:28:49;;;;;;;9.15;4.93;;;;;;;0.39;54.66;101155.88;5039332;28;20049;-70
2021/12/21 11:33:44;;;;;;;9.07;5.65;;;;;;;-0.07;55.11;101179.22;5053895;28;20617;-70
2021/12/21 11:38:57;;;;;;;8.65;5.13;;;;;;;-0.95;56.30;101155.31;5000380;28;20057;-70
2021/12/21 11:41:23;;;;;;;6.07;4.22;;;;;;;-1.14;56.51;101170.50;5006190;28;20050;-70
2021/12/21 11:44:02;;;;;;;7.13;4.00;;;;;;;-1.02;56.55;101180.66;4997406;28;20136;-69
2021/12/21 11:46:51;;;;;;;8.88;6.13;;;;;;;-0.77;56.37;101170.97;5001057;28;20133;-69
2021/12/21 11:49:41;;;;;;;10.52;4.50;;;;;;;-0.15;54.63;101167.56;5002170;28;20061;-70
2021/12/21 11:52:10;;;;;;;12.90;4.25;;;;;;;-0.48;55.04;101157.16;5005808;28;20508;-70
2021/12/21 11:54:47;;;;;;;8.85;4.55;;;;;;;-0.14;55.63;101164.22;5002128;28;20568;-69
2021/12/21 11:57:12;;;;;;;9.95;5.85;;;;;;;0.07;54.83;101161.00;5014445;28;20409;-70
2021/12/21 11:59:38;;;;;;;10.13;5.43;;;;;;;-0.18;55.92;101170.00;5003264;28;20053;-69
2021/12/21 12:02:04;;;;;;;6.78;4.25;;;;;;;-0.25;54.71;101176.50;5000060;28;20045;-72
2021/12/21 12:04:33;;;;;;;5.45;4.20;;;;;;;-0.10;55.19;101185.88;4998622;28;20410;-69
2021/12/21 12:06:59;;;;;;;7.03;4.43;;;;;;;-0.37;54.69;101186.13;5005841;28;20462;-69
2021/12/21 12:09:32;;;;;;;6.35;3.53;;;;;;;-0.56;54.09;101178.13;5002298;28;20084;-73
2021/12/21 12:12:12;;;;;;;11.30;3.25;;;;;;;-0.46;53.76;101183.03;5001462;28;20054;-69
2021/12/21 12:14:40;;;;;;;6.68;3.72;;;;;;;-0.45;54.04;101187.38;5003251;28;20124;-71
2021/12/21 12:17:26;;;;;;;6.53;3.83;;;;;;;-0.41;54.10;101188.44;4995803;28;20053;-69
2021/12/21 12:20:04;;;;;;;7.65;4.20;;;;;;;-0.79;54.38;101197.44;5000418;28;20046;-69
2021/12/21 12:22:39;;;;;;;11.32;4.93;;;;;;;-0.61;54.60;101193.34;5000227;28;20057;-71
2021/12/21 12:25:12;;;;;;;12.52;4.53;;;;;;;-0.04;53.78;101191.41;4999322;28;20030;-70
2021/12/21 12:27:48;;;;;;;16.83;5.72;;;;;;;-0.71;54.74;101201.34;4998973;28;20053;-72
2021/12/21 12:30:17;;;;;;;9.88;3.97;;;;;;;-0.69;53.74;101202.34;5001672;28;20122;-71
2021/12/21 12:32:47;;;;;;;5.13;3.78;;;;;;;-0.02;53.18;101200.13;4994538;28;20052;-70
2021/12/21 12:35:20;;;;;;;8.48;5.00;;;;;;;-0.85;54.66;101198.84;4998764;28;20081;-68
2021/12/21 12:38:05;;;;;;;7.22;5.43;;;;;;;-0.11;54.65;101197.91;5002035;28;20058;-69
2021/12/21 12:40:35;;;;;;;9.07;4.57;;;;;;;-0.10;54.87;101212.56;4999760;28;21363;-68
2021/12/21 12:43:08;;;;;;;11.75;6.25;;;;;;;-0.06;54.64;101223.94;4999261;28;20034;-69
2021/12/21 12:47:49;;;;;;;10.65;5.63;;;;;;;-0.04;55.78;101235.25;5056780;27;20991;-70
2021/12/21 12:50:25;;;;;;;10.10;6.00;;;;;;;-0.11;55.93;101243.44;5052864;28;20182;-68
2021/12/21 12:52:56;;;;;;;7.97;5.35;;;;;;;0.07;55.01;101246.16;5073834;28;20063;-69
2021/12/21 12:55:23;;;;;;;13.60;6.38;;;;;;;0.03;54.08;101239.94;5074747;28;20032;-69